This is the latest recevied weather packets stored in our database for station/object W1RCY. If no packets are shown the sender has not sent any weather packets the latest 10 day(s).
| Time | Temp. | Humidity | Pressure | Rain* | Wind** | Luminosity | Snow |
|---|---|---|---|---|---|---|---|
| 1777484576 | 13.33° C | 72% | 1014.1 hPa | 0 mm | - | 480 W/m² | - |
| 1777484272 | 12.78° C | 74% | 1014 hPa | 0 mm | - | 568 W/m² | - |
| 1777483968 | 13.33° C | 74% | 1014.1 hPa | 0 mm | - | 569 W/m² | - |
| 1777483665 | 13.33° C | 74% | 1014.1 hPa | 0 mm | - | 445 W/m² | - |
| 1777483360 | 13.33° C | 73% | 1014.2 hPa | 0 mm | - | 586 W/m² | - |
| 1777483055 | 13.33° C | 73% | 1014 hPa | 0 mm | - | 446 W/m² | - |
| 1777482753 | 12.22° C | 76% | 1014.3 hPa | 0 mm | - | 453 W/m² | - |
| 1777482449 | 12.78° C | 74% | 1014.3 hPa | 0 mm | - | 381 W/m² | - |
| 1777482146 | 12.22° C | 75% | 1014.2 hPa | 0 mm | - | 433 W/m² | - |
| 1777481844 | 12.78° C | 74% | 1014.2 hPa | 0 mm | - | 489 W/m² | - |
| 1777481541 | 12.22° C | 75% | 1014.3 hPa | 0 mm | - | 421 W/m² | - |
| 1777481237 | 12.22° C | 75% | 1014.3 hPa | 0 mm | - | 430 W/m² | - |
| 1777480935 | 12.78° C | 75% | 1014.3 hPa | 0 mm | - | 454 W/m² | - |
| 1777480631 | 12.78° C | 74% | 1014.4 hPa | 0 mm | - | 447 W/m² | - |
| 1777480328 | 11.67° C | 77% | 1014.3 hPa | 0 mm | - | 438 W/m² | - |
| 1777480023 | 11.11° C | 80% | 1014.6 hPa | 0 mm | - | 444 W/m² | - |
| 1777479721 | 11.67° C | 76% | 1014.5 hPa | 0 mm | - | 467 W/m² | - |
| 1777479418 | 12.22° C | 76% | 1014.2 hPa | 0 mm | - | 476 W/m² | - |
| 1777479114 | 12.22° C | 76% | 1014.3 hPa | 0 mm | - | 458 W/m² | - |
| 1777478811 | 12.22° C | 76% | 1014.8 hPa | 0 mm | - | 492 W/m² | - |
| 1777478508 | 11.67° C | 77% | 1014.8 hPa | 0 mm | - | 447 W/m² | - |
| 1777478205 | 11.11° C | 80% | 1014.9 hPa | 0 mm | - | 441 W/m² | - |
| 1777477901 | 11.11° C | 78% | 1014.9 hPa | 0 mm | - | 443 W/m² | - |
| 1777477596 | 11.11° C | 79% | 1015 hPa | 0 mm | - | 416 W/m² | - |
| 1777477293 | 11.11° C | 78% | 1015 hPa | 0 mm | - | 408 W/m² | - |
* Rain latest hour (hover to see other rain measurements)
** Current wind speed in m/s (hover to see current wind gust speed)